createdAt,value
2022-12-04T00:01:22.470Z,50.90
2022-12-04T00:03:53.832Z,50.21
2022-12-04T00:06:22.677Z,51.16
2022-12-04T00:08:50.751Z,52.69
2022-12-04T00:11:26.032Z,53.00
2022-12-04T00:13:52.972Z,53.10
2022-12-04T00:16:23.951Z,53.24
2022-12-04T00:18:51.322Z,55.49
2022-12-04T00:21:19.886Z,54.65
2022-12-04T00:23:47.893Z,55.95
2022-12-04T00:26:20.701Z,55.79
2022-12-04T00:28:47.991Z,53.87
2022-12-04T00:31:23.342Z,53.80
2022-12-04T00:33:50.417Z,53.46
2022-12-04T00:36:21.293Z,53.61
2022-12-04T00:38:48.530Z,54.95
2022-12-04T00:41:18.098Z,57.45
2022-12-04T00:43:45.856Z,58.17
2022-12-04T00:46:14.273Z,56.67
2022-12-04T00:48:41.867Z,56.84
2022-12-04T00:51:13.788Z,55.40
2022-12-04T00:53:40.604Z,54.40
2022-12-04T00:56:14.022Z,55.20
2022-12-04T00:58:41.429Z,54.40
2022-12-04T01:01:12.401Z,54.40
2022-12-04T01:03:40.025Z,55.74
2022-12-04T01:06:07.781Z,55.70
2022-12-04T01:08:34.592Z,54.39
2022-12-04T01:11:06.843Z,55.04
2022-12-04T01:13:33.603Z,53.56
2022-12-04T01:16:00.401Z,55.10
2022-12-04T01:18:27.317Z,56.22
2022-12-04T01:20:53.955Z,58.80
2022-12-04T01:23:20.768Z,57.47
2022-12-04T01:25:56.691Z,58.43
2022-12-04T01:28:24.328Z,58.50
2022-12-04T01:31:07.323Z,58.21
2022-12-04T01:33:36.562Z,57.80
2022-12-04T01:36:07.276Z,57.10
2022-12-04T01:38:35.124Z,56.93
2022-12-04T01:41:02.372Z,58.40
2022-12-04T01:43:32.817Z,58.67
2022-12-04T01:46:00.868Z,56.23
2022-12-04T01:48:40.072Z,56.41
2022-12-04T01:51:28.446Z,57.55
2022-12-04T01:54:05.222Z,58.21
2022-12-04T01:56:57.440Z,59.37
2022-12-04T01:59:30.692Z,58.90
2022-12-04T02:02:15.493Z,59.03
2022-12-04T02:04:43.633Z,60.23
2022-12-04T02:07:12.218Z,61.29
2022-12-04T02:09:40.701Z,61.10
2022-12-04T02:12:39.087Z,59.67
2022-12-04T02:15:30.008Z,59.37
2022-12-04T02:19:04.236Z,58.76
2022-12-04T02:21:35.736Z,59.04
2022-12-04T02:24:50.119Z,58.55
2022-12-04T02:28:25.004Z,60.05
2022-12-04T02:30:58.743Z,58.56
2022-12-04T02:33:53.996Z,58.61
2022-12-04T02:36:31.105Z,59.24
2022-12-04T02:39:15.434Z,61.91
2022-12-04T02:42:13.693Z,62.67
2022-12-04T02:44:50.281Z,64.47
2022-12-04T02:47:23.239Z,65.17
2022-12-04T02:50:01.733Z,65.99
2022-12-04T02:52:36.911Z,64.63
2022-12-04T02:55:20.379Z,67.43
2022-12-04T02:57:56.028Z,66.60
2022-12-04T03:00:22.937Z,67.74
2022-12-04T03:03:02.804Z,68.31
2022-12-04T03:05:43.221Z,68.29
2022-12-04T03:08:19.487Z,68.68
2022-12-04T03:10:55.797Z,68.24
2022-12-04T03:13:37.890Z,68.68
2022-12-04T03:16:17.635Z,67.14
2022-12-04T03:18:56.048Z,68.29
2022-12-04T03:21:31.065Z,67.14
2022-12-04T03:24:29.186Z,66.87
2022-12-04T03:27:43.059Z,67.13
2022-12-04T03:30:16.134Z,65.51
2022-12-04T03:33:09.589Z,63.32
2022-12-04T03:36:00.376Z,60.25
2022-12-04T03:38:39.151Z,59.98
2022-12-04T03:41:20.044Z,59.63
2022-12-04T03:44:02.163Z,61.96
2022-12-04T03:47:11.838Z,66.45
2022-12-04T03:50:02.384Z,62.81
2022-12-04T03:52:58.050Z,64.64
2022-12-04T03:55:34.090Z,63.22
2022-12-04T03:58:08.125Z,65.47
2022-12-04T04:00:41.307Z,62.65
2022-12-04T04:03:24.058Z,61.25
2022-12-04T04:05:58.571Z,60.70
2022-12-04T04:08:34.003Z,61.45
2022-12-04T04:11:27.728Z,61.28
2022-12-04T04:14:25.536Z,60.56
2022-12-04T04:17:24.380Z,62.88
2022-12-04T04:20:19.640Z,59.88
2022-12-04T04:23:08.005Z,58.04
2022-12-04T04:25:40.503Z,59.39
2022-12-04T04:28:38.255Z,61.36
2022-12-04T04:31:29.642Z,62.80
2022-12-04T04:34:11.321Z,62.34
2022-12-04T04:37:06.103Z,62.05
2022-12-04T04:39:51.186Z,61.44
2022-12-04T04:42:22.728Z,60.91
2022-12-04T04:45:18.591Z,62.36
2022-12-04T04:47:56.852Z,61.58
2022-12-04T04:50:24.331Z,61.77
2022-12-04T04:52:57.628Z,60.47
2022-12-04T04:55:24.591Z,63.16
2022-12-04T04:57:51.371Z,63.57
2022-12-04T05:00:22.306Z,62.58
2022-12-04T05:02:50.272Z,61.66
2022-12-04T05:05:17.869Z,61.88
2022-12-04T05:07:44.682Z,61.83
2022-12-04T05:10:11.690Z,63.11
2022-12-04T05:12:38.475Z,63.99
2022-12-04T05:15:05.850Z,62.65
2022-12-04T05:17:35.651Z,62.62
2022-12-04T05:20:04.655Z,63.34
2022-12-04T05:22:36.409Z,61.41
2022-12-04T05:25:07.706Z,61.93
2022-12-04T05:27:34.409Z,63.64
2022-12-04T05:30:01.105Z,61.32
2022-12-04T05:32:29.386Z,62.11
2022-12-04T05:34:57.598Z,63.17
2022-12-04T05:37:25.526Z,62.77
2022-12-04T05:39:52.675Z,63.85
2022-12-04T05:42:19.805Z,65.48
2022-12-04T05:44:47.564Z,64.25
2022-12-04T05:47:14.203Z,64.66
2022-12-04T05:49:40.817Z,62.68
2022-12-04T05:52:07.585Z,63.22
2022-12-04T05:54:34.239Z,64.19
2022-12-04T05:57:00.922Z,64.21
2022-12-04T05:59:27.818Z,64.53
2022-12-04T06:01:54.660Z,64.24
2022-12-04T06:04:21.624Z,63.58
2022-12-04T06:06:48.542Z,62.87
2022-12-04T06:09:15.239Z,62.35
2022-12-04T06:11:43.515Z,59.84
2022-12-04T06:14:14.677Z,60.76
2022-12-04T06:16:45.822Z,63.03
2022-12-04T06:19:19.439Z,65.74
2022-12-04T06:21:51.770Z,65.74
2022-12-04T06:24:24.585Z,63.60
2022-12-04T06:27:26.111Z,61.07
2022-12-04T06:29:42.051Z,62.72
2022-12-04T06:32:08.848Z,62.10
2022-12-04T06:34:36.961Z,62.26
2022-12-04T06:37:03.810Z,59.42
2022-12-04T06:39:30.510Z,59.11
2022-12-04T06:41:58.226Z,58.95
2022-12-04T06:44:24.972Z,61.11
2022-12-04T06:46:54.716Z,60.95
2022-12-04T06:49:22.902Z,61.33
2022-12-04T06:51:49.673Z,62.03
2022-12-04T06:54:16.438Z,62.13
2022-12-04T06:56:43.162Z,60.23
2022-12-04T06:59:10.300Z,61.27
2022-12-04T07:01:37.252Z,60.80
2022-12-04T07:04:04.643Z,62.75
2022-12-04T07:06:37.638Z,61.84
2022-12-04T07:09:14.686Z,60.35
2022-12-04T07:11:43.303Z,61.78
2022-12-04T07:14:11.321Z,60.66
2022-12-04T07:16:41.496Z,60.56
2022-12-04T07:19:13.781Z,59.90
2022-12-04T07:21:41.764Z,60.59
2022-12-04T07:24:12.837Z,62.68
2022-12-04T07:26:39.581Z,63.97
2022-12-04T07:29:06.365Z,63.05
2022-12-04T07:31:33.068Z,64.43
2022-12-04T07:33:59.841Z,63.60
2022-12-04T07:36:27.231Z,64.74
2022-12-04T07:38:56.117Z,64.06
2022-12-04T07:41:23.605Z,65.87
2022-12-04T07:43:50.316Z,65.50
2022-12-04T07:46:22.444Z,62.75
2022-12-04T07:48:49.318Z,65.74
2022-12-04T07:51:19.950Z,65.71
2022-12-04T07:53:47.602Z,65.07
2022-12-04T07:56:15.306Z,65.26
2022-12-04T07:58:43.086Z,65.52
2022-12-04T08:01:16.565Z,63.64
2022-12-04T08:03:48.508Z,64.46
2022-12-04T08:06:21.658Z,62.16
2022-12-04T08:08:49.935Z,64.92
2022-12-04T08:11:20.297Z,64.42
2022-12-04T08:13:47.028Z,66.49
2022-12-04T08:16:15.145Z,66.46
2022-12-04T08:18:46.522Z,66.21
2022-12-04T08:21:17.453Z,66.49
2022-12-04T08:23:44.772Z,67.04
2022-12-04T08:26:12.135Z,66.04
2022-12-04T08:28:39.943Z,66.33
2022-12-04T08:31:10.648Z,68.90
2022-12-04T08:33:37.657Z,69.16
2022-12-04T08:36:10.300Z,68.89
2022-12-04T08:38:37.198Z,68.61
2022-12-04T08:41:06.670Z,67.07
2022-12-04T08:43:34.414Z,65.72
2022-12-04T08:46:06.069Z,66.03
2022-12-04T08:48:33.783Z,66.31
2022-12-04T08:51:01.071Z,63.66
2022-12-04T08:53:27.797Z,64.06
2022-12-04T08:55:54.457Z,63.84
2022-12-04T08:58:21.885Z,63.80
2022-12-04T09:00:48.691Z,62.38
2022-12-04T09:03:18.562Z,63.23
2022-12-04T09:05:46.083Z,62.07
2022-12-04T09:08:16.869Z,62.05
2022-12-04T09:10:44.317Z,61.09
2022-12-04T09:13:11.054Z,63.03
2022-12-04T09:15:41.567Z,62.42
2022-12-04T09:18:09.204Z,62.07
2022-12-04T09:20:36.783Z,59.63
2022-12-04T09:23:05.743Z,59.45
2022-12-04T09:25:36.590Z,61.18
2022-12-04T09:28:04.303Z,61.03
2022-12-04T09:30:31.036Z,60.13
2022-12-04T09:32:57.810Z,59.01
2022-12-04T09:35:24.518Z,59.63
2022-12-04T09:37:51.270Z,61.31
2022-12-04T09:40:37.861Z,59.29
2022-12-04T09:43:26.054Z,61.88
2022-12-04T09:45:59.102Z,64.11
2022-12-04T09:48:35.603Z,64.89
2022-12-04T09:51:04.939Z,65.63
2022-12-04T09:54:02.074Z,66.58
2022-12-04T09:56:32.138Z,67.21
2022-12-04T09:59:27.396Z,66.41
2022-12-04T10:02:09.404Z,66.04
2022-12-04T10:04:36.204Z,64.57
2022-12-04T10:07:25.378Z,63.51
2022-12-04T10:10:08.380Z,62.66
2022-12-04T10:13:29.298Z,65.16
2022-12-04T10:16:23.014Z,67.07
2022-12-04T10:18:52.498Z,65.73
2022-12-04T10:21:48.585Z,64.61
2022-12-04T10:24:34.739Z,62.90
2022-12-04T10:27:10.720Z,63.53
2022-12-04T10:29:41.393Z,61.97
2022-12-04T10:32:20.208Z,62.21
2022-12-04T10:34:50.568Z,63.32
2022-12-04T10:37:17.447Z,62.83
2022-12-04T10:40:03.160Z,61.04
2022-12-04T10:42:38.532Z,62.16
2022-12-04T10:45:07.157Z,61.71
2022-12-04T10:47:34.715Z,62.05
2022-12-04T10:50:12.912Z,64.04
2022-12-04T10:52:39.628Z,64.40
2022-12-04T10:55:06.846Z,64.07
2022-12-04T10:57:46.416Z,64.02
2022-12-04T11:00:34.117Z,63.58
2022-12-04T11:03:08.760Z,59.98
2022-12-04T11:05:43.544Z,60.05
2022-12-04T11:08:33.346Z,60.88
2022-12-04T11:11:11.332Z,60.46
2022-12-04T11:13:39.313Z,59.26
2022-12-04T11:16:06.648Z,59.47
2022-12-04T11:18:47.896Z,59.62
2022-12-04T11:21:27.629Z,61.70
2022-12-04T11:23:54.705Z,61.40
2022-12-04T11:26:41.639Z,62.82
2022-12-04T11:29:16.673Z,64.18
2022-12-04T11:31:52.916Z,65.52
2022-12-04T11:34:24.809Z,63.62
2022-12-04T11:36:57.055Z,62.33
2022-12-04T11:39:38.905Z,64.06
2022-12-04T11:42:31.680Z,65.10
2022-12-04T11:44:58.856Z,65.42
2022-12-04T11:47:32.511Z,65.52
2022-12-04T11:50:32.543Z,63.88
2022-12-04T11:53:07.705Z,63.65
2022-12-04T11:56:07.799Z,64.36
2022-12-04T11:59:06.202Z,65.98
2022-12-04T12:02:38.582Z,65.41
2022-12-04T12:05:48.921Z,64.96
2022-12-04T12:08:43.154Z,65.51
2022-12-04T12:11:30.835Z,63.51
2022-12-04T12:14:18.797Z,64.21
2022-12-04T12:17:03.593Z,64.00
2022-12-04T12:20:11.043Z,63.75
2022-12-04T12:23:07.619Z,64.42
2022-12-04T12:25:58.046Z,64.69
2022-12-04T12:28:53.319Z,66.54
2022-12-04T12:31:59.362Z,65.22
2022-12-04T12:34:45.119Z,65.48
2022-12-04T12:37:43.986Z,63.29
2022-12-04T12:40:15.240Z,62.40
2022-12-04T12:43:13.920Z,62.16
2022-12-04T12:46:02.037Z,61.51
2022-12-04T12:48:35.257Z,61.05
2022-12-04T12:51:29.490Z,60.41
2022-12-04T12:54:19.198Z,60.94
2022-12-04T12:56:53.078Z,60.28
2022-12-04T12:59:26.982Z,60.13
2022-12-04T13:02:38.984Z,59.85
2022-12-04T13:05:10.964Z,61.72
2022-12-04T13:07:53.148Z,62.46
2022-12-04T13:10:28.629Z,62.42
2022-12-04T13:13:12.126Z,61.31
2022-12-04T13:15:55.553Z,62.37
2022-12-04T13:18:40.744Z,60.77
2022-12-04T13:21:10.482Z,62.68
2022-12-04T13:23:49.227Z,61.75
2022-12-04T13:26:49.923Z,62.66
2022-12-04T13:29:46.773Z,62.72
2022-12-04T13:32:48.869Z,63.11
2022-12-04T13:35:50.571Z,63.20
2022-12-04T13:38:53.786Z,63.10
2022-12-04T13:41:27.563Z,62.40
2022-12-04T13:43:55.479Z,62.33
2022-12-04T13:46:39.257Z,60.71
2022-12-04T13:49:18.115Z,60.77
2022-12-04T13:51:47.263Z,61.28
2022-12-04T13:54:13.813Z,62.13
2022-12-04T13:56:47.523Z,60.50
2022-12-04T13:59:35.926Z,60.64
2022-12-04T14:02:24.470Z,60.61
2022-12-04T14:05:00.110Z,62.78
2022-12-04T14:07:40.651Z,62.21
2022-12-04T14:10:33.225Z,63.06
2022-12-04T14:13:23.679Z,63.27
2022-12-04T14:16:17.687Z,64.58
2022-12-04T14:19:00.525Z,63.80
2022-12-04T14:21:46.823Z,63.40
2022-12-04T14:24:38.595Z,65.16
2022-12-04T14:27:42.037Z,65.70
2022-12-04T14:30:26.119Z,67.09
2022-12-04T14:32:58.591Z,67.91
2022-12-04T14:35:28.522Z,67.52
2022-12-04T14:38:03.708Z,65.74
2022-12-04T14:40:49.224Z,65.89
2022-12-04T14:43:27.405Z,66.04
2022-12-04T14:46:15.432Z,66.56
2022-12-04T14:49:08.194Z,65.06
2022-12-04T14:51:44.245Z,66.04
2022-12-04T14:55:00.366Z,64.50
2022-12-04T14:57:46.374Z,64.42
2022-12-04T15:00:23.070Z,65.30
2022-12-04T15:02:58.230Z,65.94
2022-12-04T15:05:30.133Z,64.95
2022-12-04T15:08:06.198Z,66.50
2022-12-04T15:10:54.037Z,65.66
2022-12-04T15:13:33.353Z,65.24
2022-12-04T15:16:23.048Z,62.54
2022-12-04T15:18:56.098Z,62.30
2022-12-04T15:21:33.161Z,61.95
2022-12-04T15:24:00.095Z,62.41
2022-12-04T15:26:28.172Z,62.71
2022-12-04T15:28:59.462Z,62.50
2022-12-04T15:31:40.741Z,63.20
2022-12-04T15:34:14.566Z,62.87
2022-12-04T15:37:08.410Z,62.75
2022-12-04T15:39:37.991Z,61.15
2022-12-04T15:42:29.454Z,62.18
2022-12-04T15:45:21.752Z,60.17
2022-12-04T15:47:48.297Z,62.25
2022-12-04T15:50:18.136Z,60.71
2022-12-04T15:53:06.043Z,62.38
2022-12-04T15:55:47.147Z,61.85
2022-12-04T15:58:22.644Z,59.06
2022-12-04T16:00:58.083Z,58.79
2022-12-04T16:03:32.097Z,59.52
2022-12-04T16:06:16.004Z,61.62
2022-12-04T16:08:45.628Z,62.73
2022-12-04T16:11:18.484Z,63.54
2022-12-04T16:13:45.260Z,62.43
2022-12-04T16:16:16.130Z,61.34
2022-12-04T16:18:43.890Z,59.59
2022-12-04T16:21:18.051Z,59.30
2022-12-04T16:23:45.459Z,60.22
2022-12-04T16:26:18.814Z,63.48
2022-12-04T16:28:46.097Z,64.16
2022-12-04T16:31:13.829Z,64.55
2022-12-04T16:33:41.043Z,63.03
2022-12-04T16:36:11.276Z,61.76
2022-12-04T16:38:38.044Z,63.91
2022-12-04T16:41:05.447Z,64.56
2022-12-04T16:43:32.234Z,64.25
2022-12-04T16:46:01.353Z,64.54
2022-12-04T16:48:29.666Z,65.48
2022-12-04T16:50:56.306Z,66.31
2022-12-04T16:53:23.255Z,66.02
2022-12-04T16:55:52.406Z,65.50
2022-12-04T16:58:20.366Z,65.46
2022-12-04T17:00:55.016Z,64.77
2022-12-04T17:03:29.992Z,64.26
2022-12-04T17:05:57.981Z,65.38
2022-12-04T17:08:24.813Z,65.97
2022-12-04T17:10:52.216Z,66.47
2022-12-04T17:13:20.733Z,66.01
2022-12-04T17:15:48.365Z,64.33
2022-12-04T17:18:20.838Z,63.63
2022-12-04T17:20:48.324Z,63.89
2022-12-04T17:23:15.373Z,64.46
2022-12-04T17:25:42.328Z,64.52
2022-12-04T17:28:09.283Z,64.44
2022-12-04T17:30:36.662Z,66.08
2022-12-04T17:33:04.803Z,68.04
2022-12-04T17:35:31.924Z,67.36
2022-12-04T17:38:05.337Z,66.11
2022-12-04T17:40:32.923Z,64.30
2022-12-04T17:42:59.926Z,64.99
2022-12-04T17:45:26.739Z,65.91
2022-12-04T17:47:53.432Z,66.05
2022-12-04T17:50:20.126Z,67.85
2022-12-04T17:52:46.850Z,67.55
2022-12-04T17:55:14.835Z,68.08
2022-12-04T17:57:41.584Z,67.15
2022-12-04T18:00:09.474Z,67.23
2022-12-04T18:02:41.562Z,67.21
2022-12-04T18:05:10.175Z,66.63
2022-12-04T18:07:37.016Z,68.38
2022-12-04T18:10:04.688Z,67.86
2022-12-04T18:12:31.336Z,68.66
2022-12-04T18:14:58.164Z,68.44
2022-12-04T18:17:25.096Z,68.82
2022-12-04T18:19:51.850Z,69.40
2022-12-04T18:22:18.940Z,68.63
2022-12-04T18:24:45.928Z,68.98
2022-12-04T18:27:12.606Z,69.21
2022-12-04T18:29:39.404Z,70.48
2022-12-04T18:32:06.276Z,69.76
2022-12-04T18:34:33.208Z,69.08
2022-12-04T18:36:59.948Z,69.96
2022-12-04T18:39:28.110Z,68.66
2022-12-04T18:41:57.459Z,69.22
2022-12-04T18:44:24.865Z,69.98
2022-12-04T18:46:51.887Z,70.00
2022-12-04T18:49:18.777Z,69.71
2022-12-04T18:51:49.721Z,70.98
2022-12-04T18:54:23.700Z,68.83
2022-12-04T18:56:51.090Z,69.67
2022-12-04T18:59:22.242Z,70.08
2022-12-04T19:01:51.097Z,70.89
2022-12-04T19:04:19.549Z,71.34
2022-12-04T19:06:52.946Z,70.65
2022-12-04T19:09:40.964Z,71.56
2022-12-04T19:12:11.830Z,71.98
2022-12-04T19:14:39.642Z,70.72
2022-12-04T19:17:06.499Z,70.61
2022-12-04T19:19:33.438Z,70.94
2022-12-04T19:22:01.158Z,71.35
2022-12-04T19:24:27.979Z,71.03
2022-12-04T19:26:54.829Z,70.41
2022-12-04T19:29:21.548Z,70.49
2022-12-04T19:31:48.387Z,69.35
2022-12-04T19:34:15.235Z,69.68
2022-12-04T19:36:42.635Z,69.13
2022-12-04T19:39:09.993Z,68.21
2022-12-04T19:41:41.276Z,71.10
2022-12-04T19:44:40.109Z,72.70
2022-12-04T19:46:56.841Z,71.36
2022-12-04T19:49:23.504Z,70.42
2022-12-04T19:51:50.520Z,68.09
2022-12-04T19:54:18.094Z,68.55
2022-12-04T19:56:49.093Z,67.03
2022-12-04T19:59:15.848Z,68.70
2022-12-04T20:01:42.605Z,68.69
2022-12-04T20:04:10.766Z,67.92
2022-12-04T20:06:44.888Z,69.42
2022-12-04T20:09:15.914Z,70.40
2022-12-04T20:11:42.678Z,70.35
2022-12-04T20:14:10.353Z,69.83
2022-12-04T20:16:38.772Z,68.96
2022-12-04T20:19:07.900Z,69.29
2022-12-04T20:21:34.992Z,69.65
2022-12-04T20:24:05.055Z,68.00
2022-12-04T20:26:37.216Z,66.58
2022-12-04T20:29:06.444Z,68.93
2022-12-04T20:31:38.007Z,70.04
2022-12-04T20:34:08.371Z,69.94
2022-12-04T20:36:41.242Z,69.20
2022-12-04T20:39:09.365Z,68.23
2022-12-04T20:41:37.499Z,67.99
2022-12-04T20:44:09.048Z,70.29
2022-12-04T20:46:38.717Z,69.25
2022-12-04T20:49:20.777Z,68.43
2022-12-04T20:51:48.966Z,67.65
2022-12-04T20:54:18.605Z,69.38
2022-12-04T20:56:46.240Z,70.98
2022-12-04T20:59:15.385Z,69.17
2022-12-04T21:01:43.015Z,66.01
2022-12-04T21:04:10.788Z,65.64
2022-12-04T21:06:40.465Z,66.76
2022-12-04T21:09:12.161Z,67.64
2022-12-04T21:11:46.555Z,67.66
2022-12-04T21:14:48.051Z,67.48
2022-12-04T21:17:19.214Z,66.44
2022-12-04T21:19:50.335Z,65.35
2022-12-04T21:22:19.249Z,65.77
2022-12-04T21:24:46.000Z,65.81
2022-12-04T21:27:17.452Z,65.67
2022-12-04T21:29:47.911Z,65.92
2022-12-04T21:32:15.119Z,68.34
2022-12-04T21:34:41.884Z,68.79
2022-12-04T21:37:08.607Z,69.81
2022-12-04T21:39:36.008Z,68.63
2022-12-04T21:42:21.901Z,68.75
2022-12-04T21:44:48.874Z,70.11
2022-12-04T21:47:15.709Z,68.59
2022-12-04T21:49:42.439Z,71.31
2022-12-04T21:52:09.128Z,71.32
2022-12-04T21:54:35.807Z,71.37
2022-12-04T21:57:02.497Z,69.93
2022-12-04T21:59:29.532Z,69.69
2022-12-04T22:01:56.548Z,69.35
2022-12-04T22:04:23.451Z,71.00
2022-12-04T22:06:50.378Z,71.67
2022-12-04T22:09:17.490Z,70.24
2022-12-04T22:11:44.656Z,71.69
2022-12-04T22:14:12.486Z,71.13
2022-12-04T22:16:42.741Z,69.79
2022-12-04T22:19:12.293Z,69.84
2022-12-04T22:21:40.003Z,70.72
2022-12-04T22:24:07.535Z,70.18
2022-12-04T22:26:34.738Z,68.83
2022-12-04T22:29:03.141Z,69.63
2022-12-04T22:31:31.930Z,71.40
2022-12-04T22:34:01.424Z,71.00
2022-12-04T22:36:31.371Z,69.27
2022-12-04T22:39:09.306Z,70.99
2022-12-04T22:41:37.291Z,69.11
2022-12-04T22:44:04.602Z,66.90
2022-12-04T22:46:31.715Z,68.26
2022-12-04T22:48:59.400Z,68.91
2022-12-04T22:51:27.163Z,70.92
2022-12-04T22:53:56.963Z,71.01
2022-12-04T22:56:27.682Z,68.90
2022-12-04T22:58:55.367Z,68.51
2022-12-04T23:01:34.403Z,68.74
2022-12-04T23:04:03.138Z,68.15
2022-12-04T23:06:32.727Z,69.62
2022-12-04T23:09:04.289Z,68.74
2022-12-04T23:11:31.262Z,68.93
2022-12-04T23:14:01.692Z,68.77
2022-12-04T23:16:31.578Z,68.90
2022-12-04T23:18:58.585Z,67.97
2022-12-04T23:21:26.238Z,67.26
2022-12-04T23:23:54.237Z,68.97
2022-12-04T23:26:35.678Z,69.27
2022-12-04T23:29:04.153Z,69.67
2022-12-04T23:31:34.403Z,71.06
2022-12-04T23:34:01.968Z,67.48
2022-12-04T23:36:28.969Z,67.96
2022-12-04T23:38:55.919Z,66.04
2022-12-04T23:41:29.977Z,66.65
2022-12-04T23:43:57.679Z,67.33
2022-12-04T23:46:32.399Z,66.36
2022-12-04T23:49:00.495Z,65.45
2022-12-04T23:51:28.326Z,66.06
2022-12-04T23:53:55.388Z,65.99
2022-12-04T23:56:25.860Z,64.67
2022-12-04T23:58:55.457Z,65.24
